Time;durP1;ratioP1;P1;durP2;ratioP2;P2;SDS_P1;SDS_P2;PMS_P1;PMS_P2;Temp;Humidity;BMP_temperature;BMP_pressure;BME280_temperature;BME280_humidity;BME280_pressure;Samples;Min_cycle;Max_cycle;Signal;HPM_P1;HPM_P2
2021/11/05 00:02:19;;;;;;;69.83;26.73;;;6.60;96.70;;;;;;5014000;28;20872;-84
2021/11/05 00:04:45;;;;;;;72.23;27.10;;;6.60;96.70;;;;;;5013979;28;20401;-84
2021/11/05 00:07:10;;;;;;;84.90;29.37;;;6.60;96.80;;;;;;5014318;28;20944;-84
2021/11/05 00:09:36;;;;;;;81.18;28.38;;;6.60;96.80;;;;;;5013955;28;20405;-84
2021/11/05 00:12:01;;;;;;;78.40;28.70;;;6.70;96.80;;;;;;5013771;28;20388;-84
2021/11/05 00:14:27;;;;;;;79.93;30.33;;;6.60;96.80;;;;;;5013493;28;20381;-84
2021/11/05 00:16:52;;;;;;;79.60;28.90;;;6.60;96.90;;;;;;5013736;28;20393;-84
2021/11/05 00:19:18;;;;;;;85.23;30.57;;;6.60;96.90;;;;;;4995736;28;20381;-84
2021/11/05 00:21:43;;;;;;;87.73;30.63;;;6.70;96.90;;;;;;5013248;28;20388;-84
2021/11/05 00:24:09;;;;;;;90.93;31.42;;;6.70;96.80;;;;;;5013735;28;20381;-84
2021/11/05 00:26:35;;;;;;;82.70;30.52;;;6.80;96.80;;;;;;5013276;28;20396;-85
2021/11/05 00:29:01;;;;;;;89.88;31.48;;;6.80;96.90;;;;;;4995770;28;20492;-85
2021/11/05 00:31:28;;;;;;;88.88;31.67;;;6.90;96.90;;;;;;5012486;28;21287;-85
2021/11/05 00:33:53;;;;;;;93.37;31.27;;;6.80;96.80;;;;;;5013555;28;20439;-84
2021/11/05 00:36:19;;;;;;;92.20;33.37;;;6.80;96.90;;;;;;5013070;28;20465;-84
2021/11/05 00:38:46;;;;;;;92.45;32.03;;;6.80;96.90;;;;;;4995747;28;20412;-84
2021/11/05 00:41:13;;;;;;;95.82;32.42;;;6.80;96.90;;;;;;4995334;28;20412;-85
2021/11/05 00:43:39;;;;;;;107.32;33.83;;;6.80;97.00;;;;;;5013313;28;20746;-85
2021/11/05 00:46:05;;;;;;;102.00;31.73;;;6.80;97.00;;;;;;4995250;28;20393;-84
2021/11/05 00:48:31;;;;;;;106.68;30.63;;;6.80;97.10;;;;;;4995334;28;20889;-83
2021/11/05 00:50:57;;;;;;;100.65;31.70;;;6.80;97.10;;;;;;5012763;28;20455;-85
2021/11/05 00:53:23;;;;;;;115.45;32.88;;;6.80;97.10;;;;;;4995240;28;20450;-84
2021/11/05 00:55:49;;;;;;;102.80;31.63;;;6.80;97.10;;;;;;4995556;28;20753;-84
2021/11/05 00:58:15;;;;;;;101.70;31.90;;;6.80;97.10;;;;;;5012782;28;20906;-84
2021/11/05 01:00:41;;;;;;;101.97;32.47;;;6.80;97.20;;;;;;4995328;28;20396;-85
2021/11/05 01:03:06;;;;;;;106.13;31.48;;;6.80;97.20;;;;;;5012278;28;20858;-85
2021/11/05 01:05:33;;;;;;;106.95;31.48;;;6.90;97.10;;;;;;5012954;28;20867;-86
2021/11/05 01:07:59;;;;;;;101.68;30.23;;;6.80;97.00;;;;;;5012290;28;20850;-84
2021/11/05 01:10:25;;;;;;;95.83;29.70;;;6.80;97.00;;;;;;4995081;28;20496;-84
2021/11/05 01:12:51;;;;;;;91.17;29.53;;;6.70;96.80;;;;;;4994787;28;20393;-85
2021/11/05 01:15:17;;;;;;;97.05;29.77;;;6.70;96.80;;;;;;5012825;28;20472;-84
2021/11/05 01:17:43;;;;;;;86.63;29.00;;;6.70;96.70;;;;;;4995118;28;20746;-84
2021/11/05 01:20:11;;;;;;;83.70;26.90;;;6.70;96.70;;;;;;5012261;28;20930;-84
2021/11/05 01:22:37;;;;;;;86.10;28.17;;;6.70;96.60;;;;;;5012633;28;20385;-84
2021/11/05 01:25:03;;;;;;;97.10;28.80;;;6.60;96.50;;;;;;4994561;28;20447;-85
2021/11/05 01:27:29;;;;;;;84.30;28.10;;;6.70;96.50;;;;;;4994761;28;20463;-84
2021/11/05 01:29:58;;;;;;;90.63;28.20;;;6.60;96.40;;;;;;5012016;28;20893;-84
2021/11/05 01:32:24;;;;;;;96.25;28.35;;;6.60;96.50;;;;;;5012191;28;20930;-83
2021/11/05 01:34:50;;;;;;;94.88;29.00;;;6.60;96.50;;;;;;5012087;28;20419;-84
2021/11/05 01:37:16;;;;;;;88.35;29.05;;;6.60;96.60;;;;;;5011684;28;20410;-84
2021/11/05 01:39:41;;;;;;;83.77;28.50;;;6.60;96.60;;;;;;5011957;28;20461;-84
2021/11/05 01:42:07;;;;;;;94.17;29.83;;;6.60;96.60;;;;;;5012244;28;20376;-84
2021/11/05 01:44:33;;;;;;;94.95;28.63;;;6.60;96.60;;;;;;5010582;28;20870;-84
2021/11/05 01:47:00;;;;;;;93.50;27.75;;;6.60;96.60;;;;;;5012180;28;20479;-84
2021/11/05 01:49:25;;;;;;;89.20;28.70;;;6.60;96.60;;;;;;5011657;28;20496;-84
2021/11/05 01:51:52;;;;;;;88.17;28.70;;;6.60;96.60;;;;;;5011912;28;20731;-84
2021/11/05 01:54:18;;;;;;;88.40;28.45;;;6.70;96.40;;;;;;5012017;28;20479;-84
2021/11/05 01:56:43;;;;;;;84.53;26.80;;;6.70;96.40;;;;;;5011782;28;20612;-84
2021/11/05 01:59:22;;;;;;;93.27;29.13;;;6.60;96.40;;;;;;5011916;28;20475;-83
2021/11/05 02:01:47;;;;;;;89.60;27.90;;;6.60;96.30;;;;;;5011825;28;20862;-84
2021/11/05 02:04:13;;;;;;;93.57;28.73;;;6.60;96.40;;;;;;5011941;28;20480;-84
2021/11/05 02:06:43;;;;;;;81.03;27.30;;;6.60;96.30;;;;;;5011471;28;20381;-84
2021/11/05 02:09:12;;;;;;;89.13;27.23;;;6.70;96.30;;;;;;4994163;28;20396;-83
2021/11/05 02:11:38;;;;;;;72.53;25.98;;;6.60;96.30;;;;;;5011331;28;20392;-84
2021/11/05 02:14:05;;;;;;;70.80;25.48;;;6.60;96.20;;;;;;5011833;28;20392;-84
2021/11/05 02:16:31;;;;;;;74.53;25.27;;;6.70;96.10;;;;;;5011787;28;20389;-84
2021/11/05 02:18:57;;;;;;;82.68;26.88;;;6.70;96.10;;;;;;5011418;28;20377;-84
2021/11/05 02:21:36;;;;;;;72.20;24.95;;;6.70;96.00;;;;;;5011670;28;20381;-84
2021/11/05 02:24:02;;;;;;;74.55;24.70;;;6.70;95.90;;;;;;4978366;28;20483;-84
2021/11/05 02:26:28;;;;;;;73.97;24.05;;;6.70;95.90;;;;;;5011824;28;20388;-84
2021/11/05 02:28:54;;;;;;;69.50;24.40;;;6.70;95.70;;;;;;4993669;28;20428;-84
2021/11/05 02:31:19;;;;;;;66.73;23.47;;;6.60;95.80;;;;;;4994001;28;20405;-83
2021/11/05 02:33:45;;;;;;;64.93;23.60;;;6.60;95.80;;;;;;4994020;28;20407;-84
2021/11/05 02:36:11;;;;;;;64.43;24.00;;;6.70;95.80;;;;;;5010400;28;20802;-84
2021/11/05 02:38:36;;;;;;;63.27;21.67;;;6.60;95.70;;;;;;5011539;28;20492;-84
2021/11/05 02:41:02;;;;;;;61.53;22.97;;;6.60;95.60;;;;;;4993842;28;20404;-84
2021/11/05 02:43:27;;;;;;;63.40;22.48;;;6.60;95.60;;;;;;5011545;28;20415;-84
2021/11/05 02:45:53;;;;;;;64.28;21.38;;;6.70;95.60;;;;;;5011565;28;20392;-84
2021/11/05 02:48:19;;;;;;;60.75;22.35;;;6.70;95.60;;;;;;5013291;28;20442;-84
2021/11/05 02:50:45;;;;;;;58.20;20.47;;;6.70;95.50;;;;;;5015314;28;20416;-84
2021/11/05 02:53:11;;;;;;;66.67;23.07;;;6.80;95.60;;;;;;5015810;28;20928;-84
2021/11/05 02:55:37;;;;;;;63.03;22.38;;;6.70;95.60;;;;;;5015417;28;20902;-84
2021/11/05 02:58:03;;;;;;;56.53;21.35;;;6.70;95.70;;;;;;5015325;28;20427;-84
2021/11/05 03:00:28;;;;;;;64.07;21.77;;;6.70;95.70;;;;;;4997722;28;20396;-84
2021/11/05 03:02:54;;;;;;;59.63;23.02;;;6.70;95.70;;;;;;4997746;28;20475;-84
2021/11/05 03:05:19;;;;;;;68.93;23.55;;;6.70;95.80;;;;;;4997879;28;20394;-83
2021/11/05 03:07:45;;;;;;;64.63;21.85;;;6.80;95.80;;;;;;5013875;28;20543;-84
2021/11/05 03:10:14;;;;;;;65.65;21.35;;;6.80;95.70;;;;;;5015146;28;20408;-84
2021/11/05 03:12:39;;;;;;;61.42;21.73;;;6.90;95.60;;;;;;4997408;28;20416;-84
2021/11/05 03:15:05;;;;;;;65.72;21.90;;;6.80;95.70;;;;;;5014807;28;20842;-84
2021/11/05 03:17:31;;;;;;;63.08;23.00;;;6.70;95.80;;;;;;5015134;28;20381;-84
2021/11/05 03:19:57;;;;;;;56.93;20.63;;;6.70;95.80;;;;;;5014895;28;20385;-84
2021/11/05 03:22:23;;;;;;;64.20;20.83;;;6.80;95.80;;;;;;4997275;28;20737;-84
2021/11/05 03:24:49;;;;;;;61.15;21.35;;;6.70;95.70;;;;;;5014796;28;20388;-84
2021/11/05 03:27:14;;;;;;;63.22;20.98;;;6.80;95.70;;;;;;4997187;28;20393;-84
2021/11/05 03:29:40;;;;;;;60.75;21.17;;;6.80;95.70;;;;;;4997057;28;20409;-84
2021/11/05 03:32:06;;;;;;;70.47;22.77;;;6.90;95.80;;;;;;5013493;28;20533;-84
2021/11/05 03:34:32;;;;;;;71.60;22.17;;;6.90;95.60;;;;;;5014677;28;20826;-84
2021/11/05 03:36:57;;;;;;;71.17;23.10;;;6.80;95.60;;;;;;4997285;28;21006;-84
2021/11/05 03:39:23;;;;;;;66.55;22.77;;;6.80;95.70;;;;;;5014626;28;20479;-84
2021/11/05 03:41:49;;;;;;;73.95;22.15;;;6.80;95.70;;;;;;5014578;28;20385;-84
2021/11/05 03:44:14;;;;;;;68.22;22.92;;;6.80;95.70;;;;;;5014203;28;20443;-84
2021/11/05 03:46:40;;;;;;;63.20;21.45;;;6.80;95.70;;;;;;5014524;28;20395;-84
2021/11/05 03:49:06;;;;;;;73.35;24.02;;;6.80;95.70;;;;;;5014323;28;20434;-83
2021/11/05 03:51:32;;;;;;;72.82;24.08;;;6.90;95.70;;;;;;5014405;28;21021;-84
2021/11/05 03:53:57;;;;;;;79.50;22.73;;;6.80;95.70;;;;;;4996875;28;20423;-84
2021/11/05 03:56:23;;;;;;;70.43;22.03;;;6.90;95.80;;;;;;5014298;28;20384;-84
2021/11/05 03:58:48;;;;;;;74.70;22.87;;;6.80;95.70;;;;;;4996574;28;20404;-84
2021/11/05 04:01:14;;;;;;;76.90;22.67;;;6.80;95.80;;;;;;5013635;28;20853;-84
2021/11/05 04:03:39;;;;;;;72.00;22.70;;;6.80;95.80;;;;;;5014138;28;20805;-84
2021/11/05 04:06:05;;;;;;;79.50;23.63;;;6.80;95.90;;;;;;5014109;28;20381;-84
2021/11/05 04:08:31;;;;;;;82.63;23.38;;;6.80;95.90;;;;;;5014054;28;20385;-84
2021/11/05 04:10:57;;;;;;;80.45;24.40;;;6.80;96.00;;;;;;5013790;28;20405;-84
2021/11/05 04:13:23;;;;;;;79.07;22.95;;;6.80;96.00;;;;;;5014085;28;20803;-83
2021/11/05 04:15:49;;;;;;;69.07;22.65;;;6.80;95.90;;;;;;4996438;28;20420;-83
2021/11/05 04:18:14;;;;;;;74.00;22.75;;;6.90;95.80;;;;;;4996308;28;20411;-84
2021/11/05 04:20:41;;;;;;;79.37;23.97;;;6.90;95.80;;;;;;5013553;28;20392;-84
2021/11/05 04:23:06;;;;;;;82.38;24.13;;;6.90;95.90;;;;;;5013775;28;20420;-84
2021/11/05 04:25:34;;;;;;;75.68;24.38;;;6.90;95.80;;;;;;5013720;28;20424;-84
2021/11/05 04:28:01;;;;;;;95.37;26.30;;;6.90;95.80;;;;;;5013620;28;20403;-84
2021/11/05 04:30:27;;;;;;;85.90;25.52;;;6.90;96.00;;;;;;5013410;28;20408;-84
2021/11/05 04:32:53;;;;;;;89.60;27.15;;;6.90;96.10;;;;;;5013726;28;20508;-84
2021/11/05 04:35:18;;;;;;;95.65;26.70;;;6.90;96.20;;;;;;4996009;28;20381;-84
2021/11/05 04:37:44;;;;;;;97.50;26.45;;;6.90;96.20;;;;;;5013339;28;20389;-84
2021/11/05 04:40:10;;;;;;;106.13;27.17;;;6.90;96.20;;;;;;5013334;28;20391;-83
2021/11/05 04:42:35;;;;;;;95.30;26.15;;;6.80;96.30;;;;;;5013331;28;20476;-84
2021/11/05 04:45:01;;;;;;;100.38;27.02;;;6.80;96.40;;;;;;5013389;28;20821;-84
2021/11/05 04:47:27;;;;;;;89.23;26.30;;;6.90;96.40;;;;;;5013409;28;20896;-83
2021/11/05 04:49:52;;;;;;;96.80;25.77;;;6.90;96.30;;;;;;5013131;28;20405;-84
2021/11/05 04:52:18;;;;;;;111.60;27.47;;;6.90;96.40;;;;;;5013231;28;20391;-84
2021/11/05 04:54:43;;;;;;;99.77;26.00;;;6.80;96.30;;;;;;5012950;28;20385;-84
2021/11/05 04:57:09;;;;;;;95.33;24.70;;;6.80;96.40;;;;;;5013073;28;20438;-84
2021/11/05 04:59:36;;;;;;;91.63;26.88;;;6.80;96.50;;;;;;5013269;28;20395;-84
2021/11/05 05:02:02;;;;;;;85.65;25.30;;;6.90;96.40;;;;;;5013025;28;20385;-84
2021/11/05 05:04:28;;;;;;;95.88;24.92;;;6.90;96.50;;;;;;5013014;28;20396;-84
2021/11/05 05:06:54;;;;;;;109.50;28.42;;;6.80;96.40;;;;;;5013212;28;20385;-84
2021/11/05 05:09:19;;;;;;;97.90;27.00;;;6.90;96.50;;;;;;5012629;28;20395;-85
2021/11/05 05:11:46;;;;;;;101.00;26.63;;;6.80;96.50;;;;;;5011718;28;20403;-84
2021/11/05 05:14:14;;;;;;;88.25;24.92;;;6.90;96.70;;;;;;5012798;28;20393;-84
2021/11/05 05:16:40;;;;;;;96.72;25.27;;;6.80;96.60;;;;;;5011612;28;20727;-83
2021/11/05 05:19:05;;;;;;;91.40;25.07;;;6.80;96.60;;;;;;5012449;28;20416;-84
2021/11/05 05:21:31;;;;;;;91.03;24.77;;;6.80;96.50;;;;;;5012611;28;20389;-84
2021/11/05 05:23:56;;;;;;;87.90;25.10;;;6.80;96.50;;;;;;5012693;28;20377;-84
2021/11/05 05:26:22;;;;;;;92.88;26.10;;;6.90;96.40;;;;;;4994473;28;20407;-84
2021/11/05 05:28:48;;;;;;;75.43;22.98;;;6.90;96.30;;;;;;4994869;28;20400;-84
2021/11/05 05:31:13;;;;;;;86.03;24.20;;;6.80;96.30;;;;;;5012354;28;20793;-84
2021/11/05 05:33:39;;;;;;;86.45;24.88;;;6.80;96.30;;;;;;5012546;28;20393;-84
2021/11/05 05:36:06;;;;;;;87.55;25.25;;;6.80;96.20;;;;;;5012430;28;20925;-83
2021/11/05 05:38:32;;;;;;;85.05;24.83;;;6.90;96.30;;;;;;4994809;28;20399;-84
2021/11/05 05:40:58;;;;;;;85.17;23.97;;;6.80;96.30;;;;;;5012382;28;20788;-83
2021/11/05 05:43:24;;;;;;;78.88;22.55;;;6.90;96.20;;;;;;5012340;28;20385;-84
2021/11/05 05:45:49;;;;;;;81.47;24.00;;;6.80;96.20;;;;;;5012071;28;20484;-84
2021/11/05 05:48:15;;;;;;;77.00;22.10;;;6.80;96.20;;;;;;5012233;28;20381;-84
2021/11/05 05:50:41;;;;;;;83.78;23.17;;;6.80;96.30;;;;;;5011614;28;20413;-84
2021/11/05 05:53:06;;;;;;;78.63;23.27;;;6.80;96.30;;;;;;5011721;28;20392;-82
2021/11/05 05:55:32;;;;;;;73.90;22.17;;;6.80;96.20;;;;;;5011602;28;20384;-84
2021/11/05 05:57:57;;;;;;;83.90;24.55;;;6.80;96.30;;;;;;5012042;28;20384;-84
2021/11/05 06:00:23;;;;;;;83.18;23.63;;;6.80;96.20;;;;;;4993908;28;20602;-83
2021/11/05 06:02:49;;;;;;;83.77;23.40;;;6.70;96.20;;;;;;5011682;28;20416;-82
2021/11/05 06:05:15;;;;;;;73.25;21.67;;;6.60;96.20;;;;;;5013271;28;20396;-84
2021/11/05 06:07:41;;;;;;;72.28;22.60;;;6.60;96.30;;;;;;5005408;28;20418;-84
2021/11/05 06:10:07;;;;;;;75.00;22.57;;;6.60;96.20;;;;;;5021201;28;20411;-83
2021/11/05 06:12:32;;;;;;;86.03;24.17;;;6.60;96.30;;;;;;5001996;28;20486;-83
2021/11/05 06:14:58;;;;;;;72.78;21.98;;;6.60;96.20;;;;;;5022298;28;20619;-83
2021/11/05 06:17:24;;;;;;;73.72;21.50;;;6.60;96.20;;;;;;5004468;28;20446;-82
2021/11/05 06:19:50;;;;;;;73.32;21.40;;;6.60;96.20;;;;;;5003796;28;20383;-83
2021/11/05 06:22:15;;;;;;;60.20;19.53;;;6.50;96.10;;;;;;5011549;28;20487;-84
2021/11/05 06:24:41;;;;;;;71.03;21.70;;;6.50;96.10;;;;;;5011618;28;20376;-84
2021/11/05 06:27:07;;;;;;;78.93;21.87;;;6.60;96.10;;;;;;4995678;28;20440;-83
2021/11/05 06:29:32;;;;;;;79.13;21.65;;;6.60;95.90;;;;;;5025474;28;20419;-84
2021/11/05 06:31:58;;;;;;;69.10;20.37;;;6.60;95.80;;;;;;5031335;28;20875;-83
2021/11/05 06:34:23;;;;;;;68.43;20.27;;;6.60;95.70;;;;;;5013716;28;20744;-85
2021/11/05 06:36:49;;;;;;;74.00;20.48;;;6.60;95.70;;;;;;5031238;28;20390;-84
2021/11/05 06:39:15;;;;;;;73.47;20.73;;;6.60;95.80;;;;;;5031470;28;20383;-83
2021/11/05 06:41:40;;;;;;;71.05;20.60;;;6.60;95.80;;;;;;5031358;28;20518;-83
2021/11/05 06:44:06;;;;;;;72.70;20.50;;;6.50;95.80;;;;;;5013510;28;20874;-83
2021/11/05 06:46:31;;;;;;;73.17;22.27;;;6.50;96.00;;;;;;5031331;28;20376;-84
2021/11/05 06:48:57;;;;;;;73.20;19.80;;;6.50;96.10;;;;;;5030994;28;20375;-84
2021/11/05 06:51:22;;;;;;;67.30;20.33;;;6.60;96.10;;;;;;5031068;28;20867;-84
2021/11/05 06:53:48;;;;;;;63.90;19.87;;;6.60;96.00;;;;;;5013541;28;20741;-84
2021/11/05 06:56:14;;;;;;;69.83;21.07;;;6.60;95.90;;;;;;5031274;28;20378;-84
2021/11/05 06:58:41;;;;;;;71.50;20.83;;;6.50;96.00;;;;;;5031194;28;20492;-83
2021/11/05 07:01:07;;;;;;;56.23;19.23;;;6.60;96.00;;;;;;5029875;28;20395;-84
2021/11/05 07:03:34;;;;;;;68.63;21.10;;;6.60;96.10;;;;;;5031158;28;20731;-84
2021/11/05 07:05:59;;;;;;;68.65;21.13;;;6.60;96.10;;;;;;5031075;28;20449;-84
2021/11/05 07:08:25;;;;;;;72.95;21.80;;;6.70;96.10;;;;;;5013182;28;20391;-84
2021/11/05 07:10:52;;;;;;;69.60;22.03;;;6.50;96.00;;;;;;5029783;28;20410;-84
2021/11/05 07:13:17;;;;;;;75.80;21.05;;;6.60;96.10;;;;;;5031018;28;20825;-85
2021/11/05 07:15:44;;;;;;;72.55;21.50;;;6.60;96.10;;;;;;5031275;28;20471;-84
2021/11/05 07:18:09;;;;;;;73.22;23.58;;;6.60;96.20;;;;;;5014076;28;20381;-84
2021/11/05 07:20:36;;;;;;;65.20;21.15;;;6.60;96.20;;;;;;5010759;28;20419;-84
2021/11/05 07:23:02;;;;;;;75.20;22.20;;;6.60;96.40;;;;;;5011536;28;20413;-84
2021/11/05 07:25:28;;;;;;;88.45;24.08;;;6.60;96.30;;;;;;5011088;28;20381;-84
2021/11/05 07:27:54;;;;;;;79.30;23.60;;;6.70;96.40;;;;;;4993408;28;20423;-83
2021/11/05 07:30:19;;;;;;;80.60;22.57;;;6.70;96.50;;;;;;5011249;28;20409;-83
2021/11/05 07:32:46;;;;;;;64.17;19.87;;;6.60;96.40;;;;;;5003213;28;20866;-83
2021/11/05 07:35:16;;;;;;;73.07;20.80;;;6.70;96.30;;;;;;5012310;28;20381;-84
2021/11/05 07:37:41;;;;;;;80.13;22.65;;;6.70;96.40;;;;;;4997121;28;20676;-83
2021/11/05 07:40:08;;;;;;;83.13;22.43;;;6.70;96.40;;;;;;5014557;28;20476;-84
2021/11/05 07:42:35;;;;;;;77.38;22.25;;;6.80;96.40;;;;;;5014549;28;20412;-84
2021/11/05 07:45:02;;;;;;;86.32;23.63;;;6.60;96.40;;;;;;4996983;28;20890;-84
2021/11/05 07:47:27;;;;;;;89.80;23.40;;;6.70;96.60;;;;;;5014525;28;20396;-84
2021/11/05 07:49:53;;;;;;;92.33;23.33;;;6.60;96.70;;;;;;5014480;28;20408;-84
2021/11/05 07:52:19;;;;;;;88.57;22.17;;;6.60;96.80;;;;;;5014591;28;20450;-84
2021/11/05 07:54:46;;;;;;;81.82;20.50;;;6.60;96.80;;;;;;5014352;28;20424;-84
2021/11/05 07:57:12;;;;;;;76.53;19.98;;;6.60;96.70;;;;;;4996680;28;20801;-84
2021/11/05 07:59:38;;;;;;;81.00;20.85;;;6.70;96.80;;;;;;5014512;28;20384;-84
2021/11/05 08:02:03;;;;;;;82.87;21.93;;;6.80;96.70;;;;;;5014267;28;20723;-84
2021/11/05 08:04:29;;;;;;;92.43;22.13;;;6.60;96.70;;;;;;5014126;28;20380;-84
2021/11/05 08:06:54;;;;;;;95.20;23.93;;;6.60;96.70;;;;;;5013760;28;20785;-83
2021/11/05 08:09:20;;;;;;;79.97;21.70;;;6.60;96.80;;;;;;5013793;28;20385;-84
2021/11/05 08:11:45;;;;;;;81.77;21.50;;;6.60;96.80;;;;;;4995092;28;20996;-83
2021/11/05 08:14:11;;;;;;;80.88;21.60;;;6.60;96.80;;;;;;5033928;28;20379;-84
2021/11/05 08:16:36;;;;;;;78.70;20.67;;;6.70;96.90;;;;;;5014546;28;20497;-84
2021/11/05 08:19:03;;;;;;;86.75;22.25;;;6.80;96.90;;;;;;5033773;28;20383;-84
2021/11/05 08:21:28;;;;;;;68.10;20.65;;;6.80;96.80;;;;;;5018473;28;20402;-84
2021/11/05 08:23:54;;;;;;;69.40;19.33;;;6.80;96.70;;;;;;5033620;28;20386;-84
2021/11/05 08:26:20;;;;;;;68.40;20.63;;;6.90;96.60;;;;;;5033495;28;20390;-85
2021/11/05 08:28:46;;;;;;;67.07;18.27;;;6.90;96.40;;;;;;5033578;28;20395;-84
2021/11/05 08:31:14;;;;;;;65.20;18.48;;;6.80;96.40;;;;;;5015663;28;20403;-83
2021/11/05 08:33:41;;;;;;;64.50;18.15;;;6.80;96.40;;;;;;5033414;28;20770;-83
2021/11/05 08:36:10;;;;;;;64.68;18.23;;;6.80;96.50;;;;;;5033185;28;20385;-84
2021/11/05 08:38:35;;;;;;;69.90;19.45;;;6.90;96.50;;;;;;5033315;28;20455;-84
2021/11/05 08:41:02;;;;;;;68.20;18.77;;;6.90;96.40;;;;;;5015520;28;20538;-84
2021/11/05 08:43:31;;;;;;;70.53;18.67;;;6.90;96.30;;;;;;5033082;28;20398;-84
2021/11/05 08:45:58;;;;;;;65.78;17.90;;;6.90;96.40;;;;;;5033164;28;20388;-85
2021/11/05 08:48:24;;;;;;;64.17;17.53;;;6.90;96.20;;;;;;5015245;28;20406;-82
2021/11/05 08:50:52;;;;;;;63.27;18.27;;;6.90;96.30;;;;;;5032934;28;20842;-83
2021/11/05 08:53:17;;;;;;;60.00;19.17;;;6.90;96.30;;;;;;5033089;28;20418;-83
2021/11/05 08:55:43;;;;;;;60.35;18.95;;;7.00;96.30;;;;;;5033224;28;20415;-83
2021/11/05 08:58:10;;;;;;;57.95;18.13;;;7.00;96.20;;;;;;5032887;28;20993;-83
2021/11/05 09:00:37;;;;;;;64.93;18.35;;;7.00;96.10;;;;;;5017315;28;20400;-83
2021/11/05 09:03:04;;;;;;;64.10;18.38;;;7.00;96.10;;;;;;5011870;28;20389;-91
2021/11/05 09:05:31;;;;;;;58.17;17.45;;;7.00;96.20;;;;;;4995427;28;20397;-83
2021/11/05 09:07:56;;;;;;;60.35;18.10;;;7.00;96.10;;;;;;5012942;28;20432;-82
2021/11/05 09:10:23;;;;;;;63.50;18.70;;;7.10;96.00;;;;;;5012827;28;20434;-83
2021/11/05 09:12:49;;;;;;;62.55;18.77;;;7.10;96.10;;;;;;5012744;28;20377;-83
2021/11/05 09:15:22;;;;;;;55.97;18.73;;;7.30;96.10;;;;;;5012547;28;20391;-83
2021/11/05 09:17:50;;;;;;;64.13;17.53;;;7.30;95.90;;;;;;5012762;28;20763;-83
2021/11/05 09:20:17;;;;;;;54.00;17.17;;;7.40;95.80;;;;;;5012727;28;20853;-83
2021/11/05 09:22:43;;;;;;;55.65;17.35;;;7.30;95.60;;;;;;5012295;28;20870;-83
2021/11/05 09:25:09;;;;;;;51.47;17.30;;;7.40;95.60;;;;;;5012678;28;20389;-83
2021/11/05 09:27:35;;;;;;;48.30;17.00;;;7.40;95.50;;;;;;5012401;28;20392;-83
2021/11/05 09:30:02;;;;;;;53.28;17.10;;;7.40;95.40;;;;;;5012449;28;20766;-82
2021/11/05 09:32:27;;;;;;;55.00;17.23;;;7.40;95.40;;;;;;5012367;28;20389;-83
2021/11/05 09:34:55;;;;;;;59.33;18.17;;;7.50;95.40;;;;;;4994799;28;20472;-84
2021/11/05 09:37:20;;;;;;;59.03;19.08;;;7.50;95.10;;;;;;5012459;28;20492;-83
2021/11/05 09:39:46;;;;;;;61.03;18.60;;;7.40;95.10;;;;;;4994656;28;20822;-83
2021/11/05 09:42:13;;;;;;;70.60;18.93;;;7.40;95.30;;;;;;5012271;28;20707;-83
2021/11/05 09:44:39;;;;;;;54.75;17.92;;;7.40;95.10;;;;;;5012259;28;20730;-83
2021/11/05 09:47:05;;;;;;;62.70;20.85;;;7.40;95.20;;;;;;5012305;28;20373;-83
2021/11/05 09:49:32;;;;;;;53.60;16.05;;;7.50;95.40;;;;;;5012820;28;20420;-83
2021/11/05 09:52:00;;;;;;;54.83;16.43;;;7.40;95.10;;;;;;5012044;28;20830;-83
2021/11/05 09:54:28;;;;;;;45.05;16.15;;;7.40;95.20;;;;;;5012085;28;20408;-83
2021/11/05 09:56:54;;;;;;;61.55;18.48;;;7.50;95.10;;;;;;4993882;28;20472;-83
2021/11/05 09:59:20;;;;;;;53.47;17.93;;;7.50;94.90;;;;;;4993789;28;20561;-83
2021/11/05 10:01:46;;;;;;;48.53;15.17;;;7.60;94.90;;;;;;5010778;28;20404;-83
2021/11/05 10:04:12;;;;;;;48.55;17.02;;;7.60;94.90;;;;;;5011943;28;20391;-83
2021/11/05 10:06:38;;;;;;;52.47;16.98;;;7.70;94.90;;;;;;5011195;28;20388;-83
2021/11/05 10:09:14;;;;;;;55.22;16.98;;;7.90;94.60;;;;;;5011976;28;20380;-83
2021/11/05 10:11:40;;;;;;;44.72;17.42;;;7.90;94.30;;;;;;5011833;28;20409;-83
2021/11/05 10:14:17;;;;;;;42.20;15.73;;;7.90;94.20;;;;;;4994299;28;20807;-84
2021/11/05 10:17:01;;;;;;;45.28;16.05;;;7.90;94.10;;;;;;5010569;28;20397;-84
2021/11/05 10:19:57;;;;;;;49.83;16.75;;;7.80;94.10;;;;;;5011630;28;20432;-83
2021/11/05 10:22:31;;;;;;;46.78;16.23;;;7.80;94.40;;;;;;5011827;28;20388;-83
2021/11/05 10:25:27;;;;;;;52.47;18.20;;;7.70;94.30;;;;;;5011695;28;20392;-84
2021/11/05 10:28:03;;;;;;;49.42;16.70;;;7.80;94.30;;;;;;5011576;28;20439;-83
2021/11/05 10:30:34;;;;;;;50.30;18.00;;;7.80;94.40;;;;;;4993430;28;20413;-84
2021/11/05 10:33:01;;;;;;;51.60;17.20;;;7.90;94.50;;;;;;4993893;28;20443;-84
2021/11/05 10:35:28;;;;;;;45.92;16.00;;;7.80;94.30;;;;;;5011644;28;20857;-84
2021/11/05 10:38:04;;;;;;;49.13;16.70;;;7.80;94.30;;;;;;5011857;28;20443;-83
2021/11/05 10:40:35;;;;;;;53.15;17.00;;;7.90;94.30;;;;;;4993981;28;20393;-83
2021/11/05 10:43:02;;;;;;;42.37;15.97;;;7.90;94.10;;;;;;4994066;28;20408;-82
2021/11/05 10:45:28;;;;;;;44.25;16.33;;;8.00;94.10;;;;;;5011554;28;20383;-83
2021/11/05 10:47:54;;;;;;;51.90;18.63;;;8.10;93.80;;;;;;5011503;28;20388;-84
2021/11/05 10:50:20;;;;;;;53.40;17.20;;;8.40;93.50;;;;;;4993754;28;20464;-83
2021/11/05 10:52:59;;;;;;;53.63;16.70;;;8.40;92.90;;;;;;5011397;28;20392;-83
2021/11/05 10:55:37;;;;;;;41.35;15.65;;;8.40;92.80;;;;;;4993738;28;20791;-83
2021/11/05 10:58:02;;;;;;;44.80;15.80;;;8.40;93.10;;;;;;4993790;28;20906;-83
2021/11/05 11:00:32;;;;;;;42.83;16.37;;;8.30;93.00;;;;;;5011412;28;20420;-83
2021/11/05 11:03:13;;;;;;;42.83;16.03;;;8.20;93.30;;;;;;5011399;28;20753;-88
2021/11/05 11:05:42;;;;;;;41.85;15.68;;;8.30;93.10;;;;;;5011156;28;20403;-83
2021/11/05 11:08:21;;;;;;;34.83;14.18;;;8.40;93.00;;;;;;5011549;28;20734;-83
2021/11/05 11:10:50;;;;;;;39.40;14.93;;;8.60;92.40;;;;;;5013320;28;20412;-82
2021/11/05 11:13:34;;;;;;;41.30;15.50;;;8.60;92.00;;;;;;5014743;28;20401;-83
2021/11/05 11:16:00;;;;;;;47.63;15.70;;;8.70;92.00;;;;;;4997217;28;20393;-84
2021/11/05 11:18:26;;;;;;;38.35;14.75;;;8.80;91.70;;;;;;5014989;28;20385;-83
2021/11/05 11:20:52;;;;;;;40.70;15.80;;;9.20;91.80;;;;;;5014979;28;20439;-83
2021/11/05 11:23:18;;;;;;;37.58;13.82;;;9.30;90.30;;;;;;5014952;28;20384;-83
2021/11/05 11:25:44;;;;;;;36.58;15.00;;;9.10;90.40;;;;;;4997256;28;20944;-83
2021/11/05 11:28:10;;;;;;;33.40;13.97;;;8.90;91.10;;;;;;5014826;28;20435;-83
2021/11/05 11:30:36;;;;;;;36.75;14.23;;;8.90;91.20;;;;;;4997179;28;20420;-83
2021/11/05 11:33:02;;;;;;;33.85;15.30;;;8.90;91.20;;;;;;5014624;28;20392;-83
2021/11/05 11:35:28;;;;;;;35.97;14.35;;;8.90;91.30;;;;;;5014696;28;20380;-83
2021/11/05 11:37:55;;;;;;;35.35;14.55;;;9.00;91.10;;;;;;5014671;28;20385;-83
2021/11/05 11:40:21;;;;;;;39.35;15.20;;;9.00;90.80;;;;;;4997068;28;20928;-84
2021/11/05 11:42:49;;;;;;;32.37;13.90;;;8.80;91.10;;;;;;4996995;28;20397;-81
2021/11/05 11:45:15;;;;;;;32.45;13.15;;;8.90;91.00;;;;;;5014687;28;20385;-84
2021/11/05 11:47:47;;;;;;;40.50;14.13;;;8.90;91.50;;;;;;5014506;28;20381;-83
2021/11/05 11:50:21;;;;;;;35.58;13.57;;;9.00;91.10;;;;;;4996733;28;20991;-83
2021/11/05 11:52:57;;;;;;;29.45;13.15;;;9.20;90.50;;;;;;5018030;28;20783;-83
2021/11/05 11:55:22;;;;;;;30.38;13.32;;;9.30;90.70;;;;;;5034124;28;20409;-84
2021/11/05 11:57:48;;;;;;;35.13;14.40;;;9.30;90.20;;;;;;5016209;28;20379;-83
2021/11/05 12:00:22;;;;;;;36.75;13.65;;;9.20;90.40;;;;;;5016160;28;20402;-83
2021/11/05 12:03:03;;;;;;;32.60;13.90;;;9.20;90.50;;;;;;5034031;28;20445;-83
2021/11/05 12:05:31;;;;;;;31.70;13.48;;;9.40;90.90;;;;;;5034391;28;20411;-83
2021/11/05 12:08:17;;;;;;;29.48;13.38;;;9.50;90.70;;;;;;5034068;28;20405;-83
2021/11/05 12:10:47;;;;;;;30.48;13.50;;;9.50;90.30;;;;;;5015736;28;20407;-83
2021/11/05 12:13:32;;;;;;;34.53;14.37;;;9.40;90.00;;;;;;5016069;28;20772;-83
2021/11/05 12:16:11;;;;;;;32.55;13.98;;;9.50;90.10;;;;;;5015707;28;20419;-85
2021/11/05 12:19:02;;;;;;;32.15;14.13;;;9.60;90.10;;;;;;5015949;28;20788;-82
2021/11/05 12:21:34;;;;;;;33.63;15.20;;;9.50;89.40;;;;;;5033024;28;20403;-83
2021/11/05 12:24:29;;;;;;;31.73;14.03;;;9.60;90.00;;;;;;5033514;28;20423;-83
2021/11/05 12:27:16;;;;;;;29.38;13.32;;;9.60;90.00;;;;;;4995088;28;20390;-83
2021/11/05 12:29:42;;;;;;;31.10;14.05;;;9.60;90.10;;;;;;5015295;28;20418;-82
2021/11/05 12:32:13;;;;;;;26.87;13.50;;;9.70;89.80;;;;;;5015588;28;20764;-82
2021/11/05 12:34:45;;;;;;;26.97;12.90;;;9.70;89.60;;;;;;5033360;28;20433;-82
2021/11/05 12:37:12;;;;;;;28.13;12.15;;;9.80;89.90;;;;;;5033340;28;20387;-83